createdAt,value
2023-04-29T00:00:43.596Z,13.17
2023-04-29T00:01:45.770Z,13.12
2023-04-29T00:02:47.966Z,13.20
2023-04-29T00:03:50.385Z,13.17
2023-04-29T00:04:52.945Z,13.02
2023-04-29T00:05:55.283Z,13.10
2023-04-29T00:06:57.500Z,13.03
2023-04-29T00:07:59.410Z,13.03
2023-04-29T00:09:01.328Z,13.11
2023-04-29T00:10:03.592Z,13.07
2023-04-29T00:11:05.450Z,13.04
2023-04-29T00:12:07.699Z,13.04
2023-04-29T00:13:09.893Z,13.05
2023-04-29T00:14:11.778Z,13.04
2023-04-29T00:15:13.671Z,13.07
2023-04-29T00:16:15.579Z,13.02
2023-04-29T00:17:18.298Z,13.05
2023-04-29T00:18:20.161Z,13.16
2023-04-29T00:19:22.118Z,13.12
2023-04-29T00:20:24.053Z,13.05
2023-04-29T00:21:27.454Z,13.00
2023-04-29T00:22:30.104Z,12.99
2023-04-29T00:23:36.080Z,12.85
2023-04-29T00:24:37.959Z,12.96
2023-04-29T00:25:40.000Z,12.89
2023-04-29T00:26:41.877Z,12.83
2023-04-29T00:27:44.104Z,12.83
2023-04-29T00:28:45.964Z,12.76
2023-04-29T00:29:47.846Z,12.67
2023-04-29T00:30:49.797Z,12.73
2023-04-29T00:31:51.775Z,12.74
2023-04-29T00:32:55.167Z,12.64
2023-04-29T00:33:57.458Z,12.63
2023-04-29T00:34:59.313Z,12.86
2023-04-29T00:36:02.179Z,12.77
2023-04-29T00:37:04.124Z,12.70
2023-04-29T00:38:06.426Z,12.56
2023-04-29T00:39:08.315Z,12.66
2023-04-29T00:40:10.668Z,12.55
2023-04-29T00:41:13.250Z,12.56
2023-04-29T00:42:15.098Z,12.64
2023-04-29T00:43:17.217Z,12.62
2023-04-29T00:44:19.201Z,12.59
2023-04-29T00:45:21.086Z,12.60
2023-04-29T00:46:23.196Z,12.44
2023-04-29T00:47:25.118Z,12.58
2023-04-29T00:48:27.619Z,12.45
2023-04-29T00:49:29.593Z,12.38
2023-04-29T00:50:31.617Z,12.42
2023-04-29T00:51:34.456Z,12.44
2023-04-29T00:52:38.444Z,12.39
2023-04-29T00:53:42.252Z,12.43
2023-04-29T00:54:44.734Z,12.56
2023-04-29T00:55:48.256Z,12.48
2023-04-29T00:56:51.160Z,12.43
2023-04-29T00:57:53.148Z,12.48
2023-04-29T00:58:55.482Z,12.50
2023-04-29T00:59:58.935Z,12.42
2023-04-29T01:01:04.336Z,12.39
2023-04-29T01:02:06.647Z,12.43
2023-04-29T01:03:09.319Z,12.37
2023-04-29T01:04:11.693Z,12.42
2023-04-29T01:05:15.177Z,12.32
2023-04-29T01:06:44.656Z,12.32
2023-04-29T01:07:59.354Z,12.16
2023-04-29T01:09:39.919Z,12.10
2023-04-29T01:10:53.232Z,12.23
2023-04-29T01:12:31.722Z,12.23
2023-04-29T01:13:49.968Z,12.32
2023-04-29T01:15:11.117Z,12.33
2023-04-29T01:16:23.429Z,12.12
2023-04-29T01:17:29.909Z,12.11
2023-04-29T01:18:49.926Z,12.16
2023-04-29T01:19:56.018Z,12.05
2023-04-29T01:20:59.732Z,12.10
2023-04-29T01:22:02.062Z,12.03
2023-04-29T01:23:05.065Z,12.03
2023-04-29T01:24:07.024Z,12.08
2023-04-29T01:25:10.051Z,12.07
2023-04-29T01:26:17.286Z,12.06
2023-04-29T01:27:25.153Z,12.01
2023-04-29T01:28:48.854Z,12.05
2023-04-29T01:30:12.933Z,11.91
2023-04-29T01:31:46.885Z,11.98
2023-04-29T01:33:21.661Z,12.10
2023-04-29T01:34:48.376Z,12.03
2023-04-29T01:36:17.957Z,11.96
2023-04-29T01:37:33.932Z,11.95
2023-04-29T01:38:45.035Z,12.06
2023-04-29T01:39:55.139Z,11.91
2023-04-29T01:41:10.960Z,11.88
2023-04-29T01:42:31.076Z,11.82
2023-04-29T01:43:37.439Z,11.68
2023-04-29T01:44:42.642Z,11.74
2023-04-29T01:45:45.090Z,11.77
2023-04-29T01:46:54.368Z,11.89
2023-04-29T01:47:59.355Z,11.95
2023-04-29T01:49:01.832Z,11.80
2023-04-29T01:50:04.344Z,11.79
2023-04-29T01:51:07.229Z,11.76
2023-04-29T01:52:09.314Z,11.78
2023-04-29T01:53:11.517Z,11.72
2023-04-29T01:54:13.408Z,11.81
2023-04-29T01:55:16.904Z,11.86
2023-04-29T01:56:19.748Z,11.79
2023-04-29T01:57:21.707Z,11.88
2023-04-29T01:58:24.053Z,11.95
2023-04-29T01:59:26.892Z,11.94
2023-04-29T02:00:29.247Z,11.96
2023-04-29T02:01:31.836Z,11.97
2023-04-29T02:02:33.921Z,11.91
2023-04-29T02:03:39.193Z,11.97
2023-04-29T02:04:43.014Z,12.05
2023-04-29T02:05:46.064Z,12.03
2023-04-29T02:06:48.347Z,12.23
2023-04-29T02:07:52.443Z,12.17
2023-04-29T02:08:54.844Z,12.02
2023-04-29T02:09:56.872Z,11.93
2023-04-29T02:11:00.430Z,11.91
2023-04-29T02:12:04.626Z,11.92
2023-04-29T02:13:06.523Z,11.96
2023-04-29T02:14:08.490Z,11.89
2023-04-29T02:15:10.536Z,11.77
2023-04-29T02:16:14.200Z,11.85
2023-04-29T02:17:16.890Z,11.85
2023-04-29T02:18:19.258Z,11.75
2023-04-29T02:19:22.333Z,11.80
2023-04-29T02:20:26.169Z,11.75
2023-04-29T02:21:28.076Z,11.83
2023-04-29T02:22:30.296Z,11.78
2023-04-29T02:23:32.425Z,11.82
2023-04-29T02:24:34.326Z,11.82
2023-04-29T02:25:36.465Z,11.85
2023-04-29T02:26:38.389Z,11.89
2023-04-29T02:27:40.599Z,11.89
2023-04-29T02:28:42.657Z,11.88
2023-04-29T02:29:44.545Z,11.90
2023-04-29T02:30:46.663Z,11.85
2023-04-29T02:31:48.579Z,12.00
2023-04-29T02:32:51.466Z,12.01
2023-04-29T02:33:54.286Z,12.01
2023-04-29T02:34:56.256Z,12.02
2023-04-29T02:35:59.748Z,11.95
2023-04-29T02:37:01.778Z,11.95
2023-04-29T02:38:03.930Z,11.80
2023-04-29T02:39:05.844Z,11.75
2023-04-29T02:40:08.314Z,11.80
2023-04-29T02:41:10.313Z,11.87
2023-04-29T02:42:12.264Z,11.67
2023-04-29T02:43:14.432Z,11.68
2023-04-29T02:44:16.362Z,11.76
2023-04-29T02:45:18.459Z,11.80
2023-04-29T02:46:20.671Z,11.85
2023-04-29T02:47:22.760Z,11.88
2023-04-29T02:48:24.942Z,11.80
2023-04-29T02:49:27.954Z,11.82
2023-04-29T02:50:29.869Z,11.78
2023-04-29T02:51:31.864Z,11.76
2023-04-29T02:52:33.750Z,11.86
2023-04-29T02:53:35.993Z,11.86
2023-04-29T02:54:37.991Z,11.75
2023-04-29T02:55:40.421Z,11.77
2023-04-29T02:56:43.005Z,11.74
2023-04-29T02:57:44.917Z,11.69
2023-04-29T02:58:47.355Z,11.68
2023-04-29T02:59:49.461Z,11.69
2023-04-29T03:00:51.499Z,11.67
2023-04-29T03:01:54.674Z,11.71
2023-04-29T03:02:57.733Z,11.67
2023-04-29T03:04:00.821Z,11.74
2023-04-29T03:05:03.680Z,11.73
2023-04-29T03:06:06.038Z,11.79
2023-04-29T03:07:08.104Z,11.76
2023-04-29T03:08:10.384Z,11.89
2023-04-29T03:09:14.310Z,11.91
2023-04-29T03:10:19.250Z,12.04
2023-04-29T03:11:24.615Z,11.86
2023-04-29T03:12:26.520Z,11.86
2023-04-29T03:13:28.440Z,11.74
2023-04-29T03:14:30.767Z,11.64
2023-04-29T03:15:33.467Z,11.76
2023-04-29T03:16:35.650Z,11.82
2023-04-29T03:17:37.872Z,11.70
2023-04-29T03:18:40.780Z,11.66
2023-04-29T03:19:42.958Z,11.60
2023-04-29T03:20:44.824Z,11.70
2023-04-29T03:21:46.725Z,11.55
2023-04-29T03:22:48.711Z,11.57
2023-04-29T03:23:50.630Z,11.73
2023-04-29T03:24:53.462Z,11.75
2023-04-29T03:25:56.014Z,11.85
2023-04-29T03:27:00.226Z,11.97
2023-04-29T03:28:02.112Z,11.83
2023-04-29T03:29:06.237Z,11.81
2023-04-29T03:30:09.246Z,11.77
2023-04-29T03:31:12.604Z,11.89
2023-04-29T03:32:14.519Z,11.91
2023-04-29T03:33:17.152Z,11.80
2023-04-29T03:34:19.818Z,11.66
2023-04-29T03:35:22.834Z,11.78
2023-04-29T03:36:25.831Z,11.82
2023-04-29T03:37:28.048Z,11.78
2023-04-29T03:38:31.058Z,11.88
2023-04-29T03:39:33.008Z,11.86
2023-04-29T03:40:35.389Z,11.78
2023-04-29T03:41:37.317Z,11.78
2023-04-29T03:42:39.229Z,11.79
2023-04-29T03:43:41.693Z,11.75
2023-04-29T03:44:43.610Z,11.85
2023-04-29T03:45:45.873Z,11.93
2023-04-29T03:46:48.774Z,11.93
2023-04-29T03:47:50.760Z,11.93
2023-04-29T03:48:56.028Z,11.96
2023-04-29T03:49:58.047Z,11.93
2023-04-29T03:51:00.494Z,11.98
2023-04-29T03:52:04.740Z,11.97
2023-04-29T03:53:06.767Z,12.02
2023-04-29T03:54:09.988Z,11.92
2023-04-29T03:55:12.773Z,11.85
2023-04-29T03:56:16.942Z,11.84
2023-04-29T03:57:19.409Z,11.90
2023-04-29T03:58:21.470Z,11.88
2023-04-29T03:59:23.380Z,11.96
2023-04-29T04:00:31.232Z,11.89
2023-04-29T04:01:34.152Z,12.02
2023-04-29T04:02:36.388Z,12.06
2023-04-29T04:03:38.773Z,12.03
2023-04-29T04:04:41.541Z,12.11
2023-04-29T04:05:44.272Z,12.07
2023-04-29T04:06:51.533Z,12.01
2023-04-29T04:07:54.033Z,12.00
2023-04-29T04:08:57.986Z,11.93
2023-04-29T04:10:00.220Z,12.03
2023-04-29T04:11:05.013Z,12.17
2023-04-29T04:12:07.637Z,12.25
2023-04-29T04:13:09.671Z,12.12
2023-04-29T04:14:11.900Z,12.21
2023-04-29T04:15:14.125Z,12.06
2023-04-29T04:16:16.186Z,12.03
2023-04-29T04:17:18.382Z,12.04
2023-04-29T04:18:21.062Z,12.07
2023-04-29T04:19:23.000Z,12.04
2023-04-29T04:20:24.995Z,12.15
2023-04-29T04:21:27.604Z,12.28
2023-04-29T04:22:30.385Z,12.23
2023-04-29T04:23:34.113Z,12.20
2023-04-29T04:24:39.839Z,12.23
2023-04-29T04:25:48.794Z,12.25
2023-04-29T04:26:51.593Z,12.38
2023-04-29T04:27:54.440Z,12.29
2023-04-29T04:28:57.819Z,12.15
2023-04-29T04:30:01.029Z,12.10
2023-04-29T04:31:03.945Z,12.28
2023-04-29T04:32:06.022Z,12.27
2023-04-29T04:33:13.399Z,12.25
2023-04-29T04:34:15.469Z,12.15
2023-04-29T04:35:23.282Z,12.33
2023-04-29T04:36:26.620Z,12.36
2023-04-29T04:37:29.669Z,12.43
2023-04-29T04:38:32.992Z,12.33
2023-04-29T04:39:36.588Z,12.15
2023-04-29T04:40:42.109Z,12.07
2023-04-29T04:41:45.223Z,12.12
2023-04-29T04:42:47.361Z,12.13
2023-04-29T04:43:50.270Z,12.14
2023-04-29T04:44:54.371Z,12.07
2023-04-29T04:45:59.547Z,12.10
2023-04-29T04:47:02.272Z,12.15
2023-04-29T04:48:05.610Z,12.30
2023-04-29T04:49:08.239Z,12.28
2023-04-29T04:50:12.322Z,12.28
2023-04-29T04:51:14.491Z,12.27
2023-04-29T04:52:21.403Z,12.20
2023-04-29T04:53:23.814Z,12.22
2023-04-29T04:54:26.376Z,12.24
2023-04-29T04:55:28.839Z,12.23
2023-04-29T04:56:31.451Z,12.27
2023-04-29T04:57:33.422Z,12.18
2023-04-29T04:58:35.821Z,12.21
2023-04-29T04:59:38.754Z,12.16
2023-04-29T05:00:44.744Z,12.09
2023-04-29T05:01:47.072Z,12.19
2023-04-29T05:02:49.551Z,12.16
2023-04-29T05:03:51.778Z,12.09
2023-04-29T05:04:54.716Z,12.22
2023-04-29T05:05:58.404Z,12.27
2023-04-29T05:07:00.669Z,12.34
2023-04-29T05:08:04.231Z,12.24
2023-04-29T05:09:06.788Z,12.42
2023-04-29T05:10:10.663Z,12.52
2023-04-29T05:11:17.833Z,12.41
2023-04-29T05:12:20.024Z,12.30
2023-04-29T05:13:22.026Z,12.31
2023-04-29T05:14:24.050Z,12.33
2023-04-29T05:15:27.452Z,12.27
2023-04-29T05:16:30.638Z,12.22
2023-04-29T05:17:32.946Z,12.16
2023-04-29T05:18:35.118Z,12.31
2023-04-29T05:19:37.161Z,12.17
2023-04-29T05:20:43.676Z,12.17
2023-04-29T05:21:45.564Z,12.28
2023-04-29T05:22:47.489Z,12.63
2023-04-29T05:23:49.971Z,12.49
2023-04-29T05:24:52.945Z,12.40
2023-04-29T05:25:55.702Z,12.26
2023-04-29T05:26:57.574Z,12.25
2023-04-29T05:27:59.448Z,12.39
2023-04-29T05:29:01.954Z,12.47
2023-04-29T05:30:04.679Z,12.51
2023-04-29T05:31:08.347Z,12.40
2023-04-29T05:32:11.534Z,12.50
2023-04-29T05:33:14.064Z,12.36
2023-04-29T05:34:16.288Z,12.33
2023-04-29T05:35:18.284Z,12.52
2023-04-29T05:36:20.808Z,12.34
2023-04-29T05:37:22.664Z,12.32
2023-04-29T05:38:29.271Z,12.34
2023-04-29T05:39:32.341Z,12.40
2023-04-29T05:40:35.812Z,12.67
2023-04-29T05:41:41.129Z,12.45
2023-04-29T05:42:43.736Z,12.47
2023-04-29T05:43:46.703Z,12.55
2023-04-29T05:44:48.875Z,12.64
2023-04-29T05:45:50.825Z,12.65
2023-04-29T05:46:52.983Z,12.54
2023-04-29T05:47:55.056Z,12.40
2023-04-29T05:48:57.705Z,12.30
2023-04-29T05:50:00.844Z,12.41
2023-04-29T05:51:03.366Z,12.40
2023-04-29T05:52:06.726Z,12.37
2023-04-29T05:53:09.269Z,12.39
2023-04-29T05:54:11.912Z,12.41
2023-04-29T05:55:14.028Z,12.48
2023-04-29T05:56:16.818Z,12.47
2023-04-29T05:57:19.082Z,12.49
2023-04-29T05:58:21.332Z,12.50
2023-04-29T05:59:23.304Z,12.47
2023-04-29T06:00:25.364Z,12.58
2023-04-29T06:01:29.222Z,12.59
2023-04-29T06:02:32.434Z,12.60
2023-04-29T06:03:34.733Z,12.67
2023-04-29T06:04:38.276Z,12.82
2023-04-29T06:05:41.426Z,12.80
2023-04-29T06:06:44.542Z,12.66
2023-04-29T06:07:47.142Z,12.68
2023-04-29T06:08:50.459Z,12.45
2023-04-29T06:09:52.913Z,12.42
2023-04-29T06:10:54.955Z,12.48
2023-04-29T06:11:57.945Z,12.48
2023-04-29T06:13:00.180Z,12.62
2023-04-29T06:14:02.363Z,12.56
2023-04-29T06:15:05.147Z,12.39
2023-04-29T06:16:07.871Z,12.64
2023-04-29T06:17:11.125Z,12.45
2023-04-29T06:18:13.338Z,12.51
2023-04-29T06:19:15.371Z,12.42
2023-04-29T06:20:18.254Z,12.49
2023-04-29T06:21:20.267Z,12.65
2023-04-29T06:22:22.616Z,12.65
2023-04-29T06:23:24.623Z,12.71
2023-04-29T06:24:26.745Z,12.86
2023-04-29T06:25:28.888Z,12.63
2023-04-29T06:26:30.894Z,12.51
2023-04-29T06:27:33.509Z,12.60
2023-04-29T06:28:35.488Z,12.54
2023-04-29T06:29:37.553Z,12.57
2023-04-29T06:30:39.620Z,12.54
2023-04-29T06:31:41.605Z,12.47
2023-04-29T06:32:44.239Z,12.53
2023-04-29T06:33:46.719Z,12.53
2023-04-29T06:34:49.117Z,12.43
2023-04-29T06:35:51.845Z,12.44
2023-04-29T06:36:54.464Z,12.46
2023-04-29T06:37:57.365Z,12.50
2023-04-29T06:39:00.954Z,12.58
2023-04-29T06:40:04.487Z,12.60
2023-04-29T06:41:07.889Z,12.58
2023-04-29T06:42:11.105Z,12.52
2023-04-29T06:43:14.696Z,12.55
2023-04-29T06:44:19.402Z,12.62
2023-04-29T06:45:21.510Z,12.63
2023-04-29T06:46:23.889Z,12.57
2023-04-29T06:47:26.448Z,12.47
2023-04-29T06:48:29.709Z,12.44
2023-04-29T06:49:31.863Z,12.35
2023-04-29T06:50:34.257Z,12.29
2023-04-29T06:51:38.017Z,12.29
2023-04-29T06:52:39.914Z,12.44
2023-04-29T06:53:42.138Z,12.38
2023-04-29T06:54:44.039Z,12.35
2023-04-29T06:55:46.658Z,12.41
2023-04-29T06:56:48.798Z,12.28
2023-04-29T06:57:52.677Z,12.29
2023-04-29T06:58:54.835Z,12.32
2023-04-29T06:59:56.889Z,12.37
2023-04-29T07:00:59.827Z,12.33
2023-04-29T07:02:01.774Z,12.37
2023-04-29T07:03:03.835Z,12.27
2023-04-29T07:04:06.361Z,12.29
2023-04-29T07:05:08.754Z,12.33
2023-04-29T07:06:10.741Z,12.43
2023-04-29T07:07:12.585Z,12.38
2023-04-29T07:08:14.688Z,12.46
2023-04-29T07:09:16.947Z,12.37
2023-04-29T07:10:18.813Z,12.40
2023-04-29T07:11:22.013Z,12.53
2023-04-29T07:12:26.670Z,12.59
2023-04-29T07:13:29.225Z,12.67
2023-04-29T07:14:32.026Z,12.56
2023-04-29T07:15:35.474Z,12.53
2023-04-29T07:16:38.272Z,12.54
2023-04-29T07:17:45.160Z,12.54
2023-04-29T07:18:47.316Z,12.51
2023-04-29T07:19:49.830Z,12.48
2023-04-29T07:20:53.115Z,12.49
2023-04-29T07:21:55.054Z,12.60
2023-04-29T07:22:56.977Z,12.77
2023-04-29T07:24:02.375Z,12.74
2023-04-29T07:25:04.943Z,12.75
2023-04-29T07:26:15.679Z,12.80
2023-04-29T07:27:17.929Z,12.85
2023-04-29T07:28:19.782Z,12.84
2023-04-29T07:29:21.690Z,12.92
2023-04-29T07:30:24.428Z,13.01
2023-04-29T07:31:26.824Z,13.10
2023-04-29T07:32:31.927Z,13.05
2023-04-29T07:33:37.919Z,13.09
2023-04-29T07:34:40.252Z,13.10
2023-04-29T07:35:43.501Z,13.23
2023-04-29T07:36:46.048Z,13.23
2023-04-29T07:37:48.300Z,13.34
2023-04-29T07:38:50.167Z,13.49
2023-04-29T07:39:52.447Z,13.57
2023-04-29T07:40:54.690Z,13.49
2023-04-29T07:41:56.671Z,13.42
2023-04-29T07:42:58.767Z,13.54
2023-04-29T07:44:00.698Z,13.65
2023-04-29T07:45:02.577Z,13.60
2023-04-29T07:46:04.865Z,13.50
2023-04-29T07:47:07.045Z,13.50
2023-04-29T07:48:09.655Z,13.58
2023-04-29T07:49:11.653Z,13.61
2023-04-29T07:50:13.652Z,13.42
2023-04-29T07:51:15.983Z,13.39
2023-04-29T07:52:18.015Z,13.39
2023-04-29T07:53:19.913Z,13.42
2023-04-29T07:54:22.642Z,13.45
2023-04-29T07:55:24.540Z,13.44
2023-04-29T07:56:27.070Z,13.48
2023-04-29T07:57:29.088Z,13.49
2023-04-29T07:58:31.274Z,13.51
2023-04-29T07:59:34.448Z,13.48
2023-04-29T08:00:38.088Z,13.39
2023-04-29T08:01:43.690Z,13.42
2023-04-29T08:02:46.331Z,13.29
2023-04-29T08:03:48.829Z,13.42
2023-04-29T08:04:52.485Z,13.41
2023-04-29T08:05:56.406Z,13.38
2023-04-29T08:06:58.673Z,13.35
2023-04-29T08:08:00.536Z,13.31
2023-04-29T08:09:03.314Z,13.44
2023-04-29T08:10:05.966Z,13.43
2023-04-29T08:11:07.821Z,13.37
2023-04-29T08:12:12.732Z,13.34
2023-04-29T08:13:16.015Z,13.34
2023-04-29T08:14:17.976Z,13.40
2023-04-29T08:15:20.351Z,13.42
2023-04-29T08:16:22.348Z,13.50
2023-04-29T08:17:24.642Z,13.56
2023-04-29T08:18:26.647Z,13.67
2023-04-29T08:19:28.556Z,13.69
2023-04-29T08:20:30.494Z,13.53
2023-04-29T08:21:32.513Z,13.59
2023-04-29T08:22:34.786Z,13.76
2023-04-29T08:23:36.741Z,13.86
2023-04-29T08:24:38.698Z,13.84
2023-04-29T08:25:44.071Z,13.85
2023-04-29T08:26:46.063Z,13.92
2023-04-29T08:27:48.748Z,13.98
2023-04-29T08:28:50.757Z,13.99
2023-04-29T08:29:52.645Z,14.00
2023-04-29T08:30:55.416Z,13.92
2023-04-29T08:31:57.542Z,14.03
2023-04-29T08:32:59.999Z,14.17
2023-04-29T08:34:01.957Z,14.13
2023-04-29T08:35:04.149Z,14.03
2023-04-29T08:36:06.343Z,14.09
2023-04-29T08:37:08.321Z,13.98
2023-04-29T08:38:10.489Z,13.88
2023-04-29T08:39:12.446Z,14.14
2023-04-29T08:40:14.442Z,14.13
2023-04-29T08:41:16.966Z,14.12
2023-04-29T08:42:31.070Z,14.25
2023-04-29T08:43:37.301Z,14.31
2023-04-29T08:44:41.346Z,14.15
2023-04-29T08:45:44.022Z,14.41
2023-04-29T08:46:46.662Z,14.32
2023-04-29T08:47:49.630Z,14.53
2023-04-29T08:48:53.011Z,14.63
2023-04-29T08:49:55.181Z,14.56
2023-04-29T08:50:58.789Z,14.72
2023-04-29T08:52:00.855Z,14.73
2023-04-29T08:53:03.044Z,14.82
2023-04-29T08:54:05.258Z,14.82
2023-04-29T08:55:08.123Z,14.95
2023-04-29T08:56:16.665Z,14.80
2023-04-29T08:57:18.762Z,14.99
2023-04-29T08:58:22.173Z,14.89
2023-04-29T08:59:25.465Z,14.67
2023-04-29T09:00:27.809Z,14.63
2023-04-29T09:01:30.161Z,14.79
2023-04-29T09:02:32.800Z,14.75
2023-04-29T09:03:43.176Z,14.78
2023-04-29T09:04:57.991Z,14.90
2023-04-29T09:06:01.669Z,15.01
2023-04-29T09:07:06.047Z,14.88
2023-04-29T09:08:08.989Z,15.03
2023-04-29T09:09:11.881Z,14.98
2023-04-29T09:10:15.054Z,15.00
2023-04-29T09:11:17.298Z,15.08
2023-04-29T09:12:19.425Z,14.91
2023-04-29T09:13:29.621Z,14.95
2023-04-29T09:14:36.120Z,15.05
2023-04-29T09:15:41.433Z,14.99
2023-04-29T09:16:47.561Z,14.89
2023-04-29T09:17:49.948Z,14.89
2023-04-29T09:18:52.508Z,15.07
2023-04-29T09:19:57.064Z,15.19
2023-04-29T09:20:59.268Z,15.23
2023-04-29T09:22:07.317Z,15.21
2023-04-29T09:23:09.332Z,15.26
2023-04-29T09:24:11.233Z,15.18
2023-04-29T09:25:14.160Z,15.37
2023-04-29T09:26:17.001Z,15.36
2023-04-29T09:27:29.533Z,15.30
2023-04-29T09:28:31.775Z,15.29
2023-04-29T09:29:34.939Z,15.23
2023-04-29T09:30:45.920Z,15.33
2023-04-29T09:31:48.970Z,15.38
2023-04-29T09:33:08.747Z,15.41
2023-04-29T09:34:14.293Z,15.40
2023-04-29T09:35:27.393Z,15.29
2023-04-29T09:36:38.562Z,15.18
2023-04-29T09:37:41.859Z,15.01
2023-04-29T09:38:55.258Z,15.05
2023-04-29T09:39:57.245Z,15.13
2023-04-29T09:41:02.361Z,15.21
2023-04-29T09:42:04.548Z,15.02
2023-04-29T09:43:14.258Z,14.97
2023-04-29T09:44:16.689Z,15.16
2023-04-29T09:45:43.131Z,14.86
2023-04-29T09:46:58.982Z,15.05
2023-04-29T09:48:05.793Z,15.20
2023-04-29T09:49:27.996Z,15.51
2023-04-29T09:50:29.964Z,15.48
2023-04-29T09:51:34.764Z,15.36
2023-04-29T09:52:42.783Z,15.30
2023-04-29T09:53:45.285Z,15.47
2023-04-29T09:54:47.487Z,15.67
2023-04-29T09:56:05.372Z,15.77
2023-04-29T09:57:09.382Z,15.63
2023-04-29T09:58:40.253Z,15.68
2023-04-29T09:59:42.995Z,15.72
2023-04-29T10:00:45.217Z,15.78
2023-04-29T10:01:58.137Z,15.88
2023-04-29T10:03:02.372Z,16.03
2023-04-29T10:04:06.157Z,16.13
2023-04-29T10:05:10.496Z,15.95
2023-04-29T10:06:13.194Z,16.04
2023-04-29T10:07:17.472Z,16.15
2023-04-29T10:08:19.750Z,16.16
2023-04-29T10:09:23.687Z,16.35
2023-04-29T10:10:29.534Z,16.47
2023-04-29T10:11:32.311Z,16.52
2023-04-29T10:12:40.063Z,16.43
2023-04-29T10:13:44.282Z,16.46
2023-04-29T10:15:01.987Z,16.33
2023-04-29T10:16:25.541Z,16.31
2023-04-29T10:17:41.071Z,16.49
2023-04-29T10:18:52.142Z,16.44
2023-04-29T10:20:05.948Z,16.42
2023-04-29T10:21:11.678Z,16.44
2023-04-29T10:22:22.702Z,16.65
2023-04-29T10:23:25.685Z,16.57
2023-04-29T10:24:28.080Z,16.69
2023-04-29T10:25:30.625Z,16.67
2023-04-29T10:26:34.130Z,16.73
2023-04-29T10:27:37.937Z,16.78
2023-04-29T10:28:42.354Z,16.82
2023-04-29T10:29:45.255Z,16.77
2023-04-29T10:30:51.860Z,16.94
2023-04-29T10:31:55.932Z,16.74
2023-04-29T10:33:02.103Z,16.75
2023-04-29T10:34:04.116Z,16.95
2023-04-29T10:35:10.079Z,16.92
2023-04-29T10:36:12.968Z,17.00
2023-04-29T10:37:16.380Z,17.02
2023-04-29T10:38:29.396Z,16.99
2023-04-29T10:39:56.373Z,16.81
2023-04-29T10:41:03.992Z,16.73
2023-04-29T10:42:16.345Z,16.85
2023-04-29T10:43:24.309Z,16.82
2023-04-29T10:44:26.578Z,16.91
2023-04-29T10:45:35.178Z,16.93
2023-04-29T10:46:38.082Z,16.99
2023-04-29T10:47:40.047Z,16.97
2023-04-29T10:48:43.819Z,17.17
2023-04-29T10:50:04.327Z,16.99
2023-04-29T10:51:06.634Z,16.81
2023-04-29T10:52:09.122Z,16.81
2023-04-29T10:53:10.990Z,16.71
2023-04-29T10:54:15.240Z,16.79
2023-04-29T10:55:17.200Z,17.09
2023-04-29T10:56:19.069Z,17.05
2023-04-29T10:57:21.990Z,17.20
2023-04-29T10:58:41.406Z,17.09
2023-04-29T10:59:43.303Z,17.28
2023-04-29T11:00:45.198Z,17.29
2023-04-29T11:01:52.150Z,17.44
2023-04-29T11:02:58.769Z,17.46
2023-04-29T11:04:05.315Z,17.43
2023-04-29T11:05:12.600Z,17.48
2023-04-29T11:06:15.450Z,17.59
2023-04-29T11:07:30.034Z,17.39
2023-04-29T11:08:39.936Z,17.18
2023-04-29T11:09:41.848Z,17.15
2023-04-29T11:10:44.079Z,17.09
2023-04-29T11:11:55.345Z,17.27
2023-04-29T11:13:26.282Z,17.11
2023-04-29T11:14:51.709Z,17.16
2023-04-29T11:16:14.646Z,17.32
2023-04-29T11:17:19.900Z,17.47
2023-04-29T11:18:23.384Z,17.54
2023-04-29T11:19:34.656Z,17.67
2023-04-29T11:21:08.640Z,17.79
2023-04-29T11:22:21.148Z,17.42
2023-04-29T11:23:27.260Z,17.53
2023-04-29T11:24:30.444Z,17.40
2023-04-29T11:25:32.274Z,17.46
2023-04-29T11:26:35.935Z,17.51
2023-04-29T11:27:40.467Z,17.43
2023-04-29T11:28:43.572Z,17.34
2023-04-29T11:29:47.577Z,17.55
2023-04-29T11:30:51.482Z,17.57
2023-04-29T11:32:07.901Z,17.79
2023-04-29T11:33:09.924Z,17.91
2023-04-29T11:34:11.881Z,18.07
2023-04-29T11:35:14.996Z,18.15
2023-04-29T11:36:16.894Z,18.17
2023-04-29T11:37:27.155Z,18.36
2023-04-29T11:38:30.392Z,18.27
2023-04-29T11:39:36.223Z,18.11
2023-04-29T11:40:50.787Z,18.10
2023-04-29T11:41:52.893Z,17.89
2023-04-29T11:42:55.087Z,17.96
2023-04-29T11:43:58.683Z,18.01
2023-04-29T11:45:00.803Z,18.14
2023-04-29T11:46:02.776Z,18.21
2023-04-29T11:47:08.221Z,18.17
2023-04-29T11:48:10.469Z,18.16
2023-04-29T11:49:12.382Z,18.05
2023-04-29T11:50:17.792Z,18.04
2023-04-29T11:51:20.135Z,18.04
2023-04-29T11:52:22.048Z,18.09
2023-04-29T11:53:27.895Z,18.17
2023-04-29T11:54:30.783Z,18.34
2023-04-29T11:55:32.725Z,18.46
2023-04-29T11:56:37.774Z,18.50
2023-04-29T11:57:40.780Z,18.33
2023-04-29T11:58:44.368Z,18.70
2023-04-29T11:59:53.565Z,18.92
2023-04-29T12:00:55.529Z,18.87
2023-04-29T12:01:59.439Z,18.88
2023-04-29T12:03:02.052Z,18.50
2023-04-29T12:04:07.536Z,18.85
2023-04-29T12:05:10.315Z,18.93
2023-04-29T12:06:15.254Z,19.17
2023-04-29T12:07:20.547Z,19.31
2023-04-29T12:08:29.628Z,19.36
2023-04-29T12:09:42.691Z,19.24
2023-04-29T12:10:44.789Z,19.35
2023-04-29T12:11:47.164Z,19.41
2023-04-29T12:12:49.674Z,19.49
2023-04-29T12:13:51.858Z,19.44
2023-04-29T12:14:54.519Z,19.36
2023-04-29T12:15:58.392Z,19.46
2023-04-29T12:17:00.643Z,19.49
2023-04-29T12:18:03.071Z,19.37
2023-04-29T12:19:05.387Z,19.58
2023-04-29T12:20:10.708Z,19.61
2023-04-29T12:21:13.386Z,19.56
2023-04-29T12:22:15.283Z,19.52
2023-04-29T12:23:20.212Z,19.54
2023-04-29T12:24:22.209Z,19.61
2023-04-29T12:25:28.123Z,19.85
2023-04-29T12:26:31.406Z,19.95
2023-04-29T12:27:37.071Z,19.93
2023-04-29T12:28:42.173Z,19.92
2023-04-29T12:29:44.091Z,19.56
2023-04-29T12:30:49.674Z,19.77
2023-04-29T12:31:51.720Z,19.26
2023-04-29T12:32:54.072Z,19.67
2023-04-29T12:33:56.808Z,19.64
2023-04-29T12:34:58.657Z,20.03
2023-04-29T12:36:00.544Z,20.27
2023-04-29T12:37:02.821Z,20.22
2023-04-29T12:38:04.750Z,20.47
2023-04-29T12:39:10.300Z,20.06
2023-04-29T12:40:20.437Z,20.36
2023-04-29T12:41:37.635Z,20.64
2023-04-29T12:42:40.115Z,20.41
2023-04-29T12:43:42.631Z,20.41
2023-04-29T12:44:48.804Z,20.26
2023-04-29T12:45:54.185Z,20.50
2023-04-29T12:46:58.435Z,20.19
2023-04-29T12:48:02.496Z,20.27
2023-04-29T12:49:05.852Z,20.13
2023-04-29T12:50:08.527Z,19.87
2023-04-29T12:51:11.669Z,19.63
2023-04-29T12:52:14.326Z,19.69
2023-04-29T12:53:16.345Z,19.63
2023-04-29T12:54:18.447Z,19.65
2023-04-29T12:55:20.657Z,19.37
2023-04-29T12:56:22.637Z,19.50
2023-04-29T12:57:26.506Z,19.82
2023-04-29T12:58:32.237Z,19.70
2023-04-29T12:59:34.410Z,19.36
2023-04-29T13:00:37.973Z,19.40
2023-04-29T13:01:39.911Z,19.45
2023-04-29T13:02:42.113Z,19.56
2023-04-29T13:03:44.210Z,19.71
2023-04-29T13:04:46.398Z,19.73
2023-04-29T13:05:51.441Z,19.75
2023-04-29T13:07:00.100Z,19.79
2023-04-29T13:08:02.262Z,19.85
2023-04-29T13:09:04.411Z,19.92
2023-04-29T13:10:07.345Z,20.04
2023-04-29T13:11:09.530Z,20.07
2023-04-29T13:12:11.400Z,20.21
2023-04-29T13:13:13.338Z,20.24
2023-04-29T13:14:15.707Z,20.15
2023-04-29T13:15:17.697Z,20.21
2023-04-29T13:16:20.289Z,20.22
2023-04-29T13:17:22.337Z,19.91
2023-04-29T13:18:24.400Z,20.12
2023-04-29T13:19:41.215Z,20.29
2023-04-29T13:20:48.694Z,20.03
2023-04-29T13:21:50.975Z,20.24
2023-04-29T13:22:53.248Z,20.56
2023-04-29T13:23:55.135Z,20.68
2023-04-29T13:24:57.080Z,20.02
2023-04-29T13:25:59.083Z,20.14
2023-04-29T13:27:03.001Z,20.39
2023-04-29T13:28:07.883Z,20.37
2023-04-29T13:29:09.987Z,20.49
2023-04-29T13:30:12.129Z,20.44
2023-04-29T13:31:14.044Z,20.25
2023-04-29T13:32:18.246Z,20.32
2023-04-29T13:33:20.748Z,20.14
2023-04-29T13:34:22.678Z,19.82
2023-04-29T13:35:24.507Z,19.93
2023-04-29T13:36:28.195Z,20.00
2023-04-29T13:37:30.592Z,20.09
2023-04-29T13:38:32.542Z,20.16
2023-04-29T13:39:38.191Z,20.22
2023-04-29T13:40:45.876Z,20.26
2023-04-29T13:41:48.855Z,20.15
2023-04-29T13:42:59.655Z,19.96
2023-04-29T13:44:20.912Z,19.99
2023-04-29T13:45:29.479Z,19.98
2023-04-29T13:46:32.658Z,19.99
2023-04-29T13:47:34.872Z,19.87
2023-04-29T13:50:16.895Z,19.42